createdAt,value
2023-04-19T00:00:08.257Z,5.40
2023-04-19T00:02:36.549Z,5.40
2023-04-19T00:05:05.194Z,5.40
2023-04-19T00:07:33.332Z,5.40
2023-04-19T00:10:01.254Z,5.50
2023-04-19T00:12:29.173Z,5.50
2023-04-19T00:14:58.520Z,5.50
2023-04-19T00:17:27.276Z,5.60
2023-04-19T00:19:55.470Z,5.50
2023-04-19T00:22:23.480Z,5.50
2023-04-19T00:24:51.468Z,5.40
2023-04-19T00:27:19.441Z,5.40
2023-04-19T00:29:47.396Z,5.30
2023-04-19T00:32:17.028Z,5.20
2023-04-19T00:34:44.962Z,5.10
2023-04-19T00:37:12.915Z,5.00
2023-04-19T00:39:41.044Z,4.90
2023-04-19T00:42:09.028Z,4.80
2023-04-19T00:44:37.004Z,4.70
2023-04-19T00:47:05.063Z,4.60
2023-04-19T00:49:34.705Z,4.30
2023-04-19T00:52:02.665Z,4.30
2023-04-19T00:54:31.365Z,4.20
2023-04-19T00:56:59.433Z,4.10
2023-04-19T00:59:27.897Z,4.10
2023-04-19T01:01:56.137Z,4.10
2023-04-19T01:04:24.905Z,4.10
2023-04-19T01:06:55.429Z,4.10
2023-04-19T01:09:23.404Z,4.10
2023-04-19T01:11:51.832Z,4.00
2023-04-19T01:14:19.784Z,4.00
2023-04-19T01:16:47.928Z,4.00
2023-04-19T01:19:16.735Z,3.80
2023-04-19T01:21:46.293Z,3.80
2023-04-19T01:24:16.236Z,3.80
2023-04-19T01:26:44.499Z,3.80
2023-04-19T01:29:12.444Z,3.80
2023-04-19T01:31:40.486Z,3.80
2023-04-19T01:34:08.557Z,3.70
2023-04-19T01:36:36.513Z,3.70
2023-04-19T01:39:04.639Z,3.70
2023-04-19T01:41:33.945Z,3.70
2023-04-19T01:44:01.993Z,3.80
2023-04-19T01:46:30.037Z,3.90
2023-04-19T01:48:57.984Z,3.90
2023-04-19T01:51:26.159Z,4.00
2023-04-19T01:53:54.689Z,4.00
2023-04-19T01:56:22.794Z,4.00
2023-04-19T01:58:52.159Z,4.10
2023-04-19T02:01:20.249Z,4.20
2023-04-19T02:03:48.530Z,4.30
2023-04-19T02:06:17.007Z,4.40
2023-04-19T02:08:45.008Z,4.40
2023-04-19T02:11:15.458Z,4.50
2023-04-19T02:13:43.769Z,4.40
2023-04-19T02:16:13.430Z,4.30
2023-04-19T02:18:41.513Z,4.30
2023-04-19T02:21:10.908Z,4.20
2023-04-19T02:23:38.911Z,4.10
2023-04-19T02:26:07.090Z,4.00
2023-04-19T02:28:35.098Z,4.00
2023-04-19T02:31:06.646Z,4.00
2023-04-19T02:33:36.673Z,4.10
2023-04-19T02:36:04.948Z,4.20
2023-04-19T02:38:33.031Z,4.20
2023-04-19T02:41:01.626Z,4.30
2023-04-19T02:43:29.610Z,4.40
2023-04-19T02:45:57.867Z,4.50
2023-04-19T02:48:26.122Z,4.50
2023-04-19T02:50:55.549Z,4.60
2023-04-19T02:53:23.479Z,4.70
2023-04-19T02:55:51.716Z,4.70
2023-04-19T02:58:19.683Z,4.70
2023-04-19T03:00:47.674Z,4.70
2023-04-19T03:03:15.719Z,4.70
2023-04-19T03:05:43.670Z,4.80
2023-04-19T03:08:13.005Z,4.80
2023-04-19T03:10:41.056Z,4.80
2023-04-19T03:13:09.189Z,4.80
2023-04-19T03:15:37.223Z,4.60
2023-04-19T03:18:05.360Z,4.60
2023-04-19T03:20:34.362Z,4.60
2023-04-19T03:23:02.374Z,4.60
2023-04-19T03:25:32.055Z,4.70
2023-04-19T03:28:00.137Z,4.70
2023-04-19T03:30:28.130Z,4.60
2023-04-19T03:32:56.310Z,4.60
2023-04-19T03:35:26.151Z,4.50
2023-04-19T03:37:54.069Z,4.60
2023-04-19T03:40:22.483Z,4.80
2023-04-19T03:42:51.786Z,4.80
2023-04-19T03:45:19.848Z,4.90
2023-04-19T03:47:47.853Z,4.90
2023-04-19T03:50:15.818Z,4.70
2023-04-19T03:52:43.885Z,4.90
2023-04-19T03:55:13.967Z,4.90
2023-04-19T03:57:42.009Z,5.10
2023-04-19T04:00:13.217Z,5.20
2023-04-19T04:02:41.453Z,5.20
2023-04-19T04:05:09.938Z,5.00
2023-04-19T04:07:37.993Z,5.00
2023-04-19T04:10:07.103Z,5.10
2023-04-19T04:12:35.082Z,5.20
2023-04-19T04:15:03.869Z,5.10
2023-04-19T04:17:33.216Z,5.10
2023-04-19T04:20:01.215Z,5.20
2023-04-19T04:22:29.259Z,5.30
2023-04-19T04:24:58.151Z,5.40
2023-04-19T04:27:26.342Z,5.30
2023-04-19T04:29:54.443Z,5.40
2023-04-19T04:32:23.527Z,5.40
2023-04-19T04:34:53.175Z,5.50
2023-04-19T04:37:21.162Z,5.40
2023-04-19T04:39:49.612Z,5.40
2023-04-19T04:42:17.629Z,5.50
2023-04-19T04:44:47.319Z,5.40
2023-04-19T04:47:15.482Z,5.50
2023-04-19T04:49:43.429Z,5.50
2023-04-19T04:52:12.718Z,5.60
2023-04-19T04:54:41.068Z,5.60
2023-04-19T04:57:10.078Z,5.50
2023-04-19T04:59:38.077Z,5.50
2023-04-19T05:02:06.128Z,5.60
2023-04-19T05:04:34.874Z,5.50
2023-04-19T05:07:02.996Z,5.60
2023-04-19T05:09:32.318Z,5.70
2023-04-19T05:12:00.461Z,5.60
2023-04-19T05:14:28.430Z,5.70
2023-04-19T05:16:56.379Z,5.60
2023-04-19T05:19:24.378Z,5.50
2023-04-19T05:21:52.322Z,5.60
2023-04-19T05:24:20.366Z,5.70
2023-04-19T05:26:49.705Z,5.70
2023-04-19T05:29:18.438Z,5.70
2023-04-19T05:31:46.516Z,5.80
2023-04-19T05:34:14.704Z,5.80
2023-04-19T05:36:42.987Z,5.80
2023-04-19T05:39:11.244Z,5.70
2023-04-19T05:41:39.248Z,5.70
2023-04-19T05:44:08.754Z,5.60
2023-04-19T05:46:37.206Z,5.80
2023-04-19T05:49:05.326Z,5.80
2023-04-19T05:51:33.334Z,5.80
2023-04-19T05:54:01.600Z,5.80
2023-04-19T05:56:29.649Z,5.80
2023-04-19T05:58:58.240Z,5.40
2023-04-19T06:01:27.706Z,5.60
2023-04-19T06:03:55.907Z,5.70
2023-04-19T06:06:24.912Z,5.70
2023-04-19T06:08:54.908Z,5.80
2023-04-19T06:11:31.541Z,5.80
2023-04-19T06:14:07.107Z,5.70
2023-04-19T06:16:36.550Z,5.40
2023-04-19T06:19:04.665Z,5.40
2023-04-19T06:21:32.792Z,5.50
2023-04-19T06:24:01.152Z,5.60
2023-04-19T06:26:29.080Z,5.70
2023-04-19T06:28:57.132Z,5.80
2023-04-19T06:31:25.442Z,5.70
2023-04-19T06:33:54.858Z,5.80
2023-04-19T06:36:22.820Z,5.80
2023-04-19T06:38:50.884Z,5.80
2023-04-19T06:41:19.410Z,5.90
2023-04-19T06:43:47.393Z,6.10
2023-04-19T06:46:15.923Z,6.10
2023-04-19T06:48:43.996Z,6.20
2023-04-19T06:51:13.318Z,6.20
2023-04-19T06:53:41.423Z,6.40
2023-04-19T06:56:10.223Z,6.30
2023-04-19T06:58:38.305Z,6.20
2023-04-19T07:01:06.493Z,6.40
2023-04-19T07:03:34.792Z,6.50
2023-04-19T07:06:03.032Z,6.60
2023-04-19T07:08:42.323Z,6.50
2023-04-19T07:11:17.015Z,6.60
2023-04-19T07:13:45.118Z,6.60
2023-04-19T07:16:14.414Z,6.50
2023-04-19T07:18:42.542Z,6.60
2023-04-19T07:21:10.697Z,6.60
2023-04-19T07:23:40.190Z,6.60
2023-04-19T07:26:09.523Z,6.40
2023-04-19T07:28:37.584Z,6.50
2023-04-19T07:31:05.765Z,6.50
2023-04-19T07:33:33.834Z,6.70
2023-04-19T07:36:01.831Z,6.70
2023-04-19T07:38:29.975Z,6.70
2023-04-19T07:40:59.265Z,6.80
2023-04-19T07:43:27.812Z,6.90
2023-04-19T07:45:56.123Z,6.90
2023-04-19T07:48:24.164Z,6.80
2023-04-19T07:50:52.160Z,6.80
2023-04-19T07:53:20.525Z,6.80
2023-04-19T07:55:48.567Z,6.80
2023-04-19T07:58:17.902Z,6.80
2023-04-19T08:00:45.894Z,6.70
2023-04-19T08:03:14.132Z,6.70
2023-04-19T08:05:42.411Z,6.70
2023-04-19T08:08:10.429Z,6.60
2023-04-19T08:10:38.398Z,6.40
2023-04-19T08:13:06.908Z,6.30
2023-04-19T08:16:23.664Z,6.30
2023-04-19T08:18:25.693Z,6.30
2023-04-19T08:20:53.876Z,6.20
2023-04-19T08:23:26.048Z,6.20
2023-04-19T08:25:59.932Z,6.40
2023-04-19T08:28:28.020Z,6.40
2023-04-19T08:31:00.680Z,6.30
2023-04-19T08:33:29.896Z,6.40
2023-04-19T08:35:57.880Z,6.30
2023-04-19T08:38:25.929Z,6.40
2023-04-19T08:40:55.803Z,6.40
2023-04-19T08:43:28.733Z,6.30
2023-04-19T08:45:59.185Z,6.20
2023-04-19T08:48:29.137Z,6.40
2023-04-19T08:51:05.127Z,6.30
2023-04-19T08:53:35.765Z,6.50
2023-04-19T08:56:15.137Z,6.60
2023-04-19T09:03:59.373Z,6.10
2023-04-19T09:06:29.358Z,6.00
2023-04-19T09:09:33.399Z,5.80
2023-04-19T09:12:04.678Z,5.50
2023-04-19T09:14:32.629Z,5.50
2023-04-19T09:17:17.834Z,5.40
2023-04-19T09:19:49.950Z,5.50
2023-04-19T09:22:18.851Z,5.50
2023-04-19T09:25:22.587Z,5.60
2023-04-19T09:27:37.051Z,5.70
2023-04-19T09:30:09.259Z,5.70
2023-04-19T09:32:49.752Z,6.00
2023-04-19T09:35:18.015Z,6.00
2023-04-19T09:38:05.597Z,5.90
2023-04-19T09:40:34.328Z,6.20
2023-04-19T09:43:17.864Z,6.30
2023-04-19T09:45:51.585Z,6.30
2023-04-19T09:48:20.987Z,6.10
2023-04-19T09:50:58.571Z,5.90
2023-04-19T09:53:33.996Z,6.10
2023-04-19T09:56:03.855Z,6.00
2023-04-19T10:03:38.260Z,5.80
2023-04-19T10:06:10.541Z,6.00
2023-04-19T10:08:39.443Z,6.00
2023-04-19T10:11:07.891Z,6.00
2023-04-19T10:13:38.589Z,6.00
2023-04-19T10:16:18.264Z,6.10
2023-04-19T10:18:49.624Z,6.20
2023-04-19T10:21:17.891Z,6.10
2023-04-19T10:23:45.902Z,6.20
2023-04-19T10:26:13.835Z,6.20
2023-04-19T10:28:43.399Z,5.80
2023-04-19T10:31:13.989Z,6.10
2023-04-19T10:33:43.112Z,6.30
2023-04-19T10:36:17.529Z,6.40
2023-04-19T10:38:48.024Z,6.50
2023-04-19T10:41:22.263Z,6.80
2023-04-19T10:44:11.123Z,7.00
2023-04-19T10:46:41.573Z,7.20
2023-04-19T10:49:11.338Z,7.10
2023-04-19T10:51:43.213Z,7.30
2023-04-19T10:54:28.590Z,7.30
2023-04-19T10:57:02.615Z,7.30
2023-04-19T10:59:31.753Z,7.20
2023-04-19T11:02:02.128Z,7.20
2023-04-19T11:04:59.304Z,7.40
2023-04-19T11:07:29.344Z,7.60
2023-04-19T11:09:57.342Z,7.60
2023-04-19T11:12:25.366Z,7.60
2023-04-19T11:14:54.635Z,7.50
2023-04-19T11:17:25.891Z,7.50
2023-04-19T11:19:58.210Z,7.20
2023-04-19T11:22:31.146Z,7.10
2023-04-19T11:25:05.881Z,6.80
2023-04-19T11:27:34.405Z,6.70
2023-04-19T11:30:07.440Z,6.90
2023-04-19T11:32:35.885Z,6.80
2023-04-19T11:35:08.977Z,6.70
2023-04-19T11:37:40.295Z,6.70
2023-04-19T11:40:10.012Z,6.70
2023-04-19T11:42:38.160Z,6.70
2023-04-19T11:45:13.180Z,6.70
2023-04-19T11:47:51.528Z,6.90
2023-04-19T11:50:33.376Z,7.10
2023-04-19T11:53:11.716Z,7.20
2023-04-19T11:55:39.896Z,7.20
2023-04-19T11:58:10.570Z,7.20
2023-04-19T12:00:38.662Z,7.10
2023-04-19T12:03:06.896Z,6.80
2023-04-19T12:05:35.484Z,6.90
2023-04-19T12:08:08.074Z,7.00
2023-04-19T12:10:36.762Z,7.20
2023-04-19T12:13:18.306Z,6.90
2023-04-19T12:15:49.020Z,6.90
2023-04-19T12:18:17.112Z,7.00
2023-04-19T12:20:47.587Z,7.20
2023-04-19T12:23:18.171Z,7.20
2023-04-19T12:25:47.423Z,7.20
2023-04-19T12:28:16.851Z,7.20
2023-04-19T12:30:44.891Z,7.10
2023-04-19T12:33:12.989Z,7.00
2023-04-19T12:35:41.172Z,6.60
2023-04-19T12:38:09.805Z,5.70
2023-04-19T12:40:39.178Z,5.00
2023-04-19T12:43:07.822Z,4.50
2023-04-19T12:45:35.861Z,4.20
2023-04-19T12:48:03.951Z,4.10
2023-04-19T12:50:31.990Z,3.90
2023-04-19T12:52:59.949Z,3.20
2023-04-19T12:55:28.143Z,3.10
2023-04-19T12:57:57.451Z,3.10
2023-04-19T13:00:25.942Z,3.20
2023-04-19T13:02:54.453Z,3.10
2023-04-19T13:05:22.826Z,3.20
2023-04-19T13:07:50.825Z,3.40
2023-04-19T13:10:18.922Z,3.40
2023-04-19T13:12:46.924Z,3.70
2023-04-19T13:15:17.460Z,3.80
2023-04-19T13:17:45.636Z,4.00
2023-04-19T13:20:14.346Z,3.90
2023-04-19T13:22:42.524Z,3.90
2023-04-19T13:25:11.236Z,3.40
2023-04-19T13:27:39.314Z,3.90
2023-04-19T13:30:08.793Z,4.10
2023-04-19T13:32:38.272Z,4.30
2023-04-19T13:35:07.832Z,4.60
2023-04-19T13:37:36.025Z,4.80
2023-04-19T13:40:18.066Z,5.00
2023-04-19T13:42:47.725Z,5.30
2023-04-19T13:45:15.738Z,5.60
2023-04-19T13:47:45.110Z,5.80
2023-04-19T13:50:13.672Z,5.90
2023-04-19T13:52:41.754Z,5.80
2023-04-19T13:55:10.469Z,5.90
2023-04-19T13:57:38.661Z,5.90
2023-04-19T14:00:08.271Z,5.90
2023-04-19T14:02:36.425Z,6.10
2023-04-19T14:05:06.864Z,6.10
2023-04-19T14:07:34.905Z,6.40
2023-04-19T14:10:02.961Z,6.50
2023-04-19T14:12:30.916Z,6.60
2023-04-19T14:14:58.878Z,6.60
2023-04-19T14:17:27.178Z,6.60
2023-04-19T14:19:56.635Z,6.60
2023-04-19T14:22:26.023Z,6.50
2023-04-19T14:24:53.981Z,6.60
2023-04-19T14:27:22.088Z,6.60
2023-04-19T14:29:50.384Z,6.60
2023-04-19T14:32:26.077Z,6.50
2023-04-19T14:34:55.754Z,6.40
2023-04-19T14:37:26.044Z,6.60
2023-04-19T14:39:54.365Z,6.50
2023-04-19T14:42:24.361Z,6.60
2023-04-19T14:44:53.118Z,6.60
2023-04-19T14:47:21.777Z,6.60
2023-04-19T14:49:50.551Z,6.60
2023-04-19T14:52:18.552Z,6.70
2023-04-19T14:54:47.884Z,6.60
2023-04-19T14:57:15.916Z,6.60
2023-04-19T14:59:44.163Z,6.70
2023-04-19T15:02:13.442Z,6.60
2023-04-19T15:04:42.355Z,6.50
2023-04-19T15:07:11.321Z,6.60
2023-04-19T15:09:40.260Z,6.80
2023-04-19T15:12:09.695Z,6.80
2023-04-19T15:14:38.099Z,7.00
2023-04-19T15:17:06.457Z,7.00
2023-04-19T15:19:34.406Z,7.10
2023-04-19T15:22:03.854Z,7.00
2023-04-19T15:24:31.886Z,7.30
2023-04-19T15:27:00.127Z,7.00
2023-04-19T15:29:29.594Z,7.20
2023-04-19T15:31:57.715Z,7.30
2023-04-19T15:34:26.249Z,7.20
2023-04-19T15:36:54.265Z,7.10
2023-04-19T15:39:22.248Z,7.10
2023-04-19T15:41:50.407Z,7.10
2023-04-19T15:44:18.637Z,7.00
2023-04-19T15:46:48.086Z,7.00
2023-04-19T15:49:16.433Z,6.90
2023-04-19T15:51:44.717Z,6.50
2023-04-19T15:54:14.519Z,6.40
2023-04-19T15:56:42.551Z,6.60
2023-04-19T15:59:10.506Z,6.80
2023-04-19T16:01:38.906Z,6.90
2023-04-19T16:04:08.479Z,6.80
2023-04-19T16:06:36.717Z,6.70
2023-04-19T16:09:06.429Z,6.80
2023-04-19T16:11:34.532Z,6.80
2023-04-19T16:14:02.611Z,6.80
2023-04-19T16:16:34.161Z,6.80
2023-04-19T16:19:02.497Z,6.90
2023-04-19T16:21:31.898Z,6.90
2023-04-19T16:24:00.718Z,6.90
2023-04-19T16:26:28.857Z,6.90
2023-04-19T16:28:56.827Z,6.90
2023-04-19T16:31:24.906Z,6.90
2023-04-19T16:33:53.019Z,6.80
2023-04-19T16:36:21.086Z,6.70
2023-04-19T16:38:50.882Z,6.90
2023-04-19T16:41:18.840Z,6.90
2023-04-19T16:43:46.791Z,6.90
2023-04-19T16:46:14.994Z,6.90
2023-04-19T16:48:42.946Z,6.80
2023-04-19T16:51:10.907Z,6.90
2023-04-19T16:53:39.050Z,7.00
2023-04-19T16:56:08.668Z,6.90
2023-04-19T16:58:36.682Z,7.00
2023-04-19T17:01:05.290Z,6.90
2023-04-19T17:03:34.906Z,6.90
2023-04-19T17:06:03.164Z,6.90
2023-04-19T17:08:32.302Z,7.00
2023-04-19T17:11:00.279Z,6.90
2023-04-19T17:13:29.655Z,6.80
2023-04-19T17:15:57.938Z,6.90
2023-04-19T17:18:25.863Z,6.90
2023-04-19T17:20:54.149Z,6.80
2023-04-19T17:23:22.207Z,6.90
2023-04-19T17:25:50.304Z,6.70
2023-04-19T17:28:18.290Z,6.60
2023-04-19T17:30:47.588Z,6.70
2023-04-19T17:33:15.640Z,6.60
2023-04-19T17:35:43.899Z,6.60
2023-04-19T17:38:12.604Z,6.60
2023-04-19T17:40:40.591Z,6.50
2023-04-19T17:43:10.449Z,6.30
2023-04-19T17:45:38.413Z,6.20
2023-04-19T17:48:08.078Z,6.30
2023-04-19T17:50:36.300Z,6.40
2023-04-19T17:53:04.292Z,6.40
2023-04-19T17:55:33.016Z,6.40
2023-04-19T17:58:01.202Z,6.30
2023-04-19T18:00:29.275Z,6.40
2023-04-19T18:02:57.331Z,6.40
2023-04-19T18:05:27.002Z,6.40
2023-04-19T18:07:55.075Z,6.30
2023-04-19T18:10:23.220Z,6.30
2023-04-19T18:12:51.277Z,6.30
2023-04-19T18:15:19.306Z,6.20
2023-04-19T18:17:47.384Z,6.10
2023-04-19T18:20:16.096Z,6.10
2023-04-19T18:22:48.732Z,6.00
2023-04-19T18:25:16.827Z,5.80
2023-04-19T18:27:45.238Z,5.70
2023-04-19T18:30:13.735Z,5.80
2023-04-19T18:32:41.693Z,5.90
2023-04-19T18:35:10.818Z,5.90
2023-04-19T18:37:38.971Z,5.80
2023-04-19T18:40:09.925Z,5.80
2023-04-19T18:42:37.861Z,5.70
2023-04-19T18:45:07.061Z,5.60
2023-04-19T18:47:35.054Z,5.50
2023-04-19T18:50:05.341Z,5.50
2023-04-19T18:52:35.314Z,5.50
2023-04-19T18:55:03.582Z,5.40
2023-04-19T18:57:35.067Z,5.40
2023-04-19T19:00:05.855Z,5.30
2023-04-19T19:02:36.065Z,5.30
2023-04-19T19:05:07.536Z,5.30
2023-04-19T19:07:37.830Z,5.30
2023-04-19T19:12:42.958Z,5.40
2023-04-19T19:15:11.453Z,5.40
2023-04-19T19:17:39.542Z,5.40
2023-04-19T19:20:09.061Z,5.40
2023-04-19T19:22:37.046Z,5.40
2023-04-19T19:25:05.605Z,5.30
2023-04-19T19:27:33.595Z,5.30
2023-04-19T19:30:03.774Z,5.20
2023-04-19T19:32:32.645Z,5.20
2023-04-19T19:35:04.800Z,5.30
2023-04-19T19:37:36.183Z,5.20
2023-04-19T19:40:06.525Z,5.20
2023-04-19T19:42:34.868Z,5.20
2023-04-19T19:45:06.810Z,5.30
2023-04-19T19:47:35.525Z,5.30
2023-04-19T19:50:52.079Z,5.20
2023-04-19T19:52:52.690Z,5.20
2023-04-19T19:55:20.779Z,5.20
2023-04-19T19:58:25.767Z,5.10
2023-04-19T20:00:46.307Z,5.10
2023-04-19T20:03:21.808Z,5.00
2023-04-19T20:06:05.534Z,5.00
2023-04-19T20:08:47.344Z,4.90
2023-04-19T20:11:15.386Z,4.90
2023-04-19T20:13:43.392Z,4.90
2023-04-19T20:16:14.508Z,4.90
2023-04-19T20:18:43.188Z,4.80
2023-04-19T20:21:11.345Z,4.90
2023-04-19T20:23:40.135Z,4.90
2023-04-19T20:26:08.466Z,4.80
2023-04-19T20:28:36.542Z,4.70
2023-04-19T20:31:04.924Z,4.80
2023-04-19T20:33:34.270Z,4.90
2023-04-19T20:36:03.626Z,5.00
2023-04-19T20:38:34.451Z,5.00
2023-04-19T20:41:03.089Z,5.00
2023-04-19T20:43:31.619Z,5.00
2023-04-19T20:45:59.761Z,5.00
2023-04-19T20:48:27.723Z,5.10
2023-04-19T20:50:57.001Z,5.00
2023-04-19T20:53:25.025Z,5.00
2023-04-19T20:55:53.105Z,4.90
2023-04-19T20:58:21.146Z,4.90
2023-04-19T21:00:50.935Z,4.90
2023-04-19T21:03:19.136Z,4.90
2023-04-19T21:05:47.189Z,4.90
2023-04-19T21:08:18.311Z,4.80
2023-04-19T21:10:46.255Z,4.80
2023-04-19T21:13:14.216Z,4.80
2023-04-19T21:15:42.407Z,4.70
2023-04-19T21:18:10.490Z,4.70
2023-04-19T21:20:39.389Z,4.70
2023-04-19T21:23:08.671Z,4.70
2023-04-19T21:25:38.153Z,4.70
2023-04-19T21:28:06.167Z,4.70
2023-04-19T21:30:38.564Z,4.60
2023-04-19T21:33:06.653Z,4.60
2023-04-19T21:35:35.440Z,4.60
2023-04-19T21:38:03.624Z,4.60
2023-04-19T21:40:31.726Z,4.50
2023-04-19T21:43:01.052Z,4.40
2023-04-19T21:45:29.208Z,4.40
2023-04-19T21:47:57.181Z,4.30
2023-04-19T21:50:25.203Z,4.40
2023-04-19T21:52:53.246Z,4.50
2023-04-19T21:55:21.425Z,4.60
2023-04-19T21:57:50.067Z,4.60
2023-04-19T22:00:19.832Z,4.50
2023-04-19T22:02:47.826Z,4.60
2023-04-19T22:05:16.673Z,4.60
2023-04-19T22:07:45.026Z,4.60
2023-04-19T22:10:13.399Z,4.50
2023-04-19T22:12:55.050Z,4.50
2023-04-19T22:15:27.808Z,4.60
2023-04-19T22:17:57.172Z,4.40
2023-04-19T22:20:26.804Z,4.50
2023-04-19T22:22:54.792Z,4.50
2023-04-19T22:25:22.881Z,4.50
2023-04-19T22:27:50.980Z,4.50
2023-04-19T22:30:18.938Z,4.60
2023-04-19T22:32:48.594Z,4.60
2023-04-19T22:35:17.092Z,4.60
2023-04-19T22:37:45.052Z,4.60
2023-04-19T22:40:13.875Z,4.50
2023-04-19T22:42:41.836Z,4.50
2023-04-19T22:45:10.895Z,4.40
2023-04-19T22:47:38.989Z,4.40
2023-04-19T22:50:09.833Z,4.40
2023-04-19T22:52:38.359Z,4.40
2023-04-19T22:55:07.009Z,4.50
2023-04-19T22:57:35.006Z,4.50
2023-04-19T23:00:05.656Z,4.50
2023-04-19T23:02:33.706Z,4.50
2023-04-19T23:05:02.176Z,4.50
2023-04-19T23:07:31.641Z,4.50
2023-04-19T23:09:59.714Z,4.40
2023-04-19T23:12:27.702Z,4.30
2023-04-19T23:14:55.645Z,4.20
2023-04-19T23:17:23.642Z,4.20
2023-04-19T23:19:51.617Z,4.20
2023-04-19T23:22:19.619Z,4.30
2023-04-19T23:24:48.955Z,4.30
2023-04-19T23:27:17.380Z,4.40
2023-04-19T23:29:45.331Z,4.40
2023-04-19T23:32:13.434Z,4.40
2023-04-19T23:34:41.448Z,4.50
2023-04-19T23:37:09.421Z,4.50
2023-04-19T23:39:38.189Z,4.60
2023-04-19T23:42:07.591Z,4.60
2023-04-19T23:44:35.726Z,4.60
2023-04-19T23:47:03.717Z,4.50
2023-04-19T23:49:32.378Z,4.50
2023-04-19T23:52:00.561Z,4.60
2023-04-19T23:54:28.508Z,4.60
2023-04-19T23:56:57.584Z,4.60
2023-04-19T23:59:27.754Z,4.60
